Time;durP1;ratioP1;P1;durP2;ratioP2;P2;SDS_P1;SDS_P2;PMS_P1;PMS_P2;Temp;Humidity;BMP_temperature;BMP_pressure;BME280_temperature;BME280_humidity;BME280_pressure;Samples;Min_cycle;Max_cycle;Signal;HPM_P1;HPM_P2
2023/01/06 00:00:29;;;;;;;3.10;1.80;;;11.40;85.00;;;;;;5036523;28;20427;-74
2023/01/06 00:02:55;;;;;;;2.23;1.40;;;11.50;84.90;;;;;;5024632;28;20197;-73
2023/01/06 00:05:20;;;;;;;2.93;1.70;;;11.50;84.90;;;;;;5028371;28;20220;-76
2023/01/06 00:07:50;;;;;;;2.17;1.53;;;11.40;84.90;;;;;;5029302;28;20297;-74
2023/01/06 00:10:15;;;;;;;2.73;1.40;;;11.50;85.00;;;;;;5026745;28;20687;-73
2023/01/06 00:12:47;;;;;;;8.90;1.93;;;11.50;84.90;;;;;;5029947;28;20416;-74
2023/01/06 00:15:13;;;;;;;4.00;1.60;;;11.50;84.90;;;;;;5023792;28;20205;-73
2023/01/06 00:17:39;;;;;;;2.53;1.60;;;11.50;85.00;;;;;;5028176;28;20795;-74
2023/01/06 00:20:05;;;;;;;2.43;1.50;;;11.50;85.00;;;;;;5027085;28;20502;-73
2023/01/06 00:22:31;;;;;;;2.50;1.30;;;11.50;85.20;;;;;;5030356;28;20188;-73
2023/01/06 00:24:56;;;;;;;2.47;1.40;;;11.60;85.00;;;;;;5030714;28;20463;-74
2023/01/06 00:27:22;;;;;;;1.67;1.17;;;11.60;84.90;;;;;;5029683;28;20219;-74
2023/01/06 00:29:49;;;;;;;1.70;1.13;;;11.60;84.60;;;;;;5028078;28;20208;-73
2023/01/06 00:32:16;;;;;;;2.03;1.40;;;11.60;84.40;;;;;;5033082;28;20223;-74
2023/01/06 00:34:41;;;;;;;4.47;1.87;;;11.70;84.40;;;;;;5031996;28;20538;-73
2023/01/06 00:37:07;;;;;;;2.00;1.43;;;11.60;84.40;;;;;;5023581;28;20447;-75
2023/01/06 00:39:32;;;;;;;2.80;1.87;;;11.60;84.40;;;;;;5029804;28;20189;-73
2023/01/06 00:42:04;;;;;;;3.43;1.80;;;11.60;84.30;;;;;;5023880;28;20250;-74
2023/01/06 00:44:37;;;;;;;2.43;1.67;;;11.70;84.40;;;;;;5023521;28;20241;-73
2023/01/06 00:47:09;;;;;;;2.53;1.50;;;11.60;84.30;;;;;;5024246;28;20828;-74
2023/01/06 00:49:35;;;;;;;4.30;1.60;;;11.60;84.40;;;;;;5027702;28;20423;-72
2023/01/06 00:52:01;;;;;;;2.60;1.50;;;11.60;84.30;;;;;;5020994;28;20432;-73
2023/01/06 00:54:27;;;;;;;5.00;1.80;;;11.60;84.40;;;;;;5028729;28;20834;-74
2023/01/06 00:56:54;;;;;;;2.03;1.43;;;11.60;84.40;;;;;;5019000;28;20460;-73
2023/01/06 00:59:22;;;;;;;2.00;1.47;;;11.50;84.40;;;;;;5027091;28;20424;-75
2023/01/06 01:01:50;;;;;;;1.80;1.20;;;11.50;84.40;;;;;;5024948;28;20411;-73
2023/01/06 01:04:16;;;;;;;3.90;1.63;;;11.60;84.40;;;;;;5027150;28;20791;-74
2023/01/06 01:06:43;;;;;;;3.30;1.40;;;11.60;84.40;;;;;;5026602;28;20528;-73
2023/01/06 01:09:13;;;;;;;1.20;1.20;;;11.50;84.40;;;;;;5027634;28;20559;-73
2023/01/06 01:14:23;;;;;;;5.80;1.63;;;11.40;84.60;;;;;;5029379;28;21025;-74
2023/01/06 01:16:48;;;;;;;2.00;1.50;;;11.40;84.70;;;;;;5025741;28;20530;-73
2023/01/06 01:19:15;;;;;;;3.40;1.97;;;11.40;84.90;;;;;;5028605;28;20673;-75
2023/01/06 01:21:41;;;;;;;1.97;1.10;;;11.40;84.70;;;;;;5029063;28;20570;-73
2023/01/06 01:24:07;;;;;;;2.80;1.80;;;11.40;84.70;;;;;;5029329;28;20438;-74
2023/01/06 01:26:32;;;;;;;3.33;1.47;;;11.40;84.90;;;;;;5020492;28;20217;-73
2023/01/06 01:28:58;;;;;;;2.50;1.77;;;11.30;85.00;;;;;;5028725;28;20469;-72
2023/01/06 01:31:23;;;;;;;3.27;1.57;;;11.30;85.20;;;;;;5029906;28;20197;-73
2023/01/06 01:33:49;;;;;;;2.90;1.60;;;11.30;85.30;;;;;;5029729;28;20181;-73
2023/01/06 01:36:16;;;;;;;1.90;1.50;;;11.20;85.60;;;;;;5020299;28;20221;-73
2023/01/06 01:38:42;;;;;;;2.50;1.37;;;11.20;85.70;;;;;;5031751;28;20189;-72
2023/01/06 01:41:13;;;;;;;2.27;1.50;;;11.20;85.60;;;;;;5027850;28;20532;-73
2023/01/06 01:43:43;;;;;;;3.23;1.90;;;11.20;85.60;;;;;;5029334;28;20240;-75
2023/01/06 01:46:10;;;;;;;2.40;1.60;;;11.20;85.70;;;;;;5020289;28;20480;-74
2023/01/06 01:48:37;;;;;;;3.50;1.63;;;11.20;85.70;;;;;;5032521;28;20428;-73
2023/01/06 01:51:08;;;;;;;3.60;1.90;;;11.20;85.60;;;;;;5032395;28;20451;-73
2023/01/06 01:53:45;;;;;;;2.70;1.23;;;11.20;85.70;;;;;;5030890;28;20488;-74
2023/01/06 01:56:20;;;;;;;2.03;1.50;;;11.20;85.60;;;;;;5030171;28;20470;-72
2023/01/06 01:58:52;;;;;;;4.90;1.40;;;11.20;85.60;;;;;;5031219;28;20421;-73
2023/01/06 02:01:18;;;;;;;1.40;1.10;;;11.20;85.60;;;;;;5033632;28;20434;-73
2023/01/06 02:03:44;;;;;;;1.83;1.40;;;11.20;85.70;;;;;;5032304;28;20428;-73
2023/01/06 02:06:14;;;;;;;2.20;1.57;;;11.20;85.70;;;;;;5031384;28;20236;-73
2023/01/06 02:08:46;;;;;;;2.33;1.30;;;11.30;85.60;;;;;;5031310;28;20855;-74
2023/01/06 02:11:11;;;;;;;1.50;1.20;;;11.30;85.50;;;;;;5035238;28;20424;-73
2023/01/06 02:13:39;;;;;;;5.77;1.50;;;11.40;85.50;;;;;;5034771;28;20423;-73
2023/01/06 02:16:25;;;;;;;2.00;1.57;;;11.40;85.30;;;;;;5034511;28;20221;-74
2023/01/06 02:19:18;;;;;;;2.20;1.50;;;11.40;85.00;;;;;;5033372;28;20426;-74
2023/01/06 02:22:17;;;;;;;2.03;1.30;;;11.40;85.00;;;;;;5038663;28;20420;-73
2023/01/06 02:25:25;;;;;;;2.40;1.57;;;11.50;84.90;;;;;;5032375;28;20456;-72
2023/01/06 02:28:18;;;;;;;9.00;3.40;;;11.60;84.70;;;;;;5023092;28;20444;-72
2023/01/06 02:31:22;;;;;;;2.63;1.93;;;11.50;84.60;;;;;;5029466;28;20424;-74
2023/01/06 02:34:12;;;;;;;1.53;1.27;;;11.60;84.60;;;;;;5029146;28;20423;-74
2023/01/06 02:36:48;;;;;;;2.10;1.40;;;11.60;84.40;;;;;;5034195;28;20451;-72
2023/01/06 02:39:29;;;;;;;2.43;1.53;;;11.60;84.60;;;;;;5033998;28;20416;-74
2023/01/06 02:42:07;;;;;;;1.63;1.30;;;11.60;84.40;;;;;;5033681;28;20422;-72
2023/01/06 02:44:47;;;;;;;2.50;1.50;;;11.60;84.30;;;;;;5024249;28;20424;-75
2023/01/06 02:47:28;;;;;;;4.03;1.43;;;11.60;84.30;;;;;;5030853;28;20570;-73
2023/01/06 02:49:56;;;;;;;1.87;1.33;;;11.70;84.10;;;;;;5037989;28;20404;-72
2023/01/06 02:52:40;;;;;;;3.50;1.50;;;11.70;84.00;;;;;;5039538;28;20444;-75
2023/01/06 02:55:21;;;;;;;1.90;1.30;;;11.60;84.00;;;;;;5029808;28;20510;-74
2023/01/06 02:58:33;;;;;;;2.23;1.60;;;11.70;84.00;;;;;;5024111;28;20436;-73
2023/01/06 03:01:25;;;;;;;2.30;1.10;;;11.70;83.80;;;;;;5022740;28;20767;-75
2023/01/06 03:03:52;;;;;;;1.93;1.50;;;11.60;83.80;;;;;;5028290;28;20420;-73
2023/01/06 03:06:22;;;;;;;1.60;1.20;;;11.60;84.00;;;;;;5038108;28;20501;-73
2023/01/06 03:08:50;;;;;;;4.67;1.70;;;11.60;84.00;;;;;;5045287;28;20434;-74
2023/01/06 03:11:16;;;;;;;2.07;1.33;;;11.60;84.10;;;;;;5043615;28;20427;-74
2023/01/06 03:14:04;;;;;;;2.40;1.50;;;11.60;84.30;;;;;;5039727;28;20428;-73
2023/01/06 03:16:29;;;;;;;2.57;1.30;;;11.60;84.30;;;;;;5033096;28;20466;-73
2023/01/06 03:18:55;;;;;;;1.47;1.40;;;11.70;84.10;;;;;;5029171;28;20428;-74
2023/01/06 03:21:25;;;;;;;4.00;1.30;;;11.70;83.80;;;;;;5021057;28;20197;-74
2023/01/06 03:23:51;;;;;;;1.80;1.23;;;11.70;83.80;;;;;;5031953;28;20428;-73
2023/01/06 03:26:17;;;;;;;1.57;1.30;;;11.70;83.80;;;;;;5026325;28;20958;-71
2023/01/06 03:28:43;;;;;;;3.43;1.47;;;11.80;83.70;;;;;;5024073;28;20424;-73
2023/01/06 03:31:11;;;;;;;3.33;1.50;;;11.70;83.60;;;;;;5025469;28;20486;-73
2023/01/06 03:33:46;;;;;;;4.57;1.57;;;11.70;83.70;;;;;;5024218;28;20185;-72
2023/01/06 03:36:33;;;;;;;2.50;1.70;;;11.70;83.70;;;;;;5022474;28;20491;-74
2023/01/06 03:39:20;;;;;;;2.50;1.70;;;11.70;83.80;;;;;;5027597;28;20973;-74
2023/01/06 03:45:36;;;;;;;2.03;1.37;;;11.50;84.00;;;;;;5006301;28;20552;-74
2023/01/06 03:48:09;;;;;;;1.63;1.33;;;11.40;84.40;;;;;;5032548;28;20416;-73
2023/01/06 03:50:55;;;;;;;2.80;1.33;;;11.40;84.70;;;;;;5034471;28;20408;-72
2023/01/06 03:53:44;;;;;;;2.90;1.60;;;11.40;84.90;;;;;;5029321;28;20420;-74
2023/01/06 03:56:37;;;;;;;3.13;1.70;;;11.40;85.00;;;;;;5025509;28;20463;-72
2023/01/06 03:59:09;;;;;;;3.70;2.10;;;11.40;84.90;;;;;;5033898;28;20431;-73
2023/01/06 04:01:36;;;;;;;3.77;1.87;;;11.40;84.90;;;;;;5029603;28;20420;-74
2023/01/06 04:04:02;;;;;;;2.73;1.60;;;11.30;84.70;;;;;;5031507;28;20427;-73
2023/01/06 04:06:27;;;;;;;3.23;2.37;;;11.20;85.20;;;;;;5030894;28;21038;-74
2023/01/06 04:08:53;;;;;;;4.03;2.20;;;11.20;85.50;;;;;;5028955;28;20256;-74
2023/01/06 04:14:03;;;;;;;2.30;1.70;;;11.10;85.60;;;;;;5027043;28;20192;-75
2023/01/06 04:16:28;;;;;;;2.57;1.60;;;11.10;85.70;;;;;;5032100;28;20459;-74
2023/01/06 04:18:54;;;;;;;1.90;1.53;;;10.90;86.00;;;;;;5030417;28;20192;-74
2023/01/06 04:21:19;;;;;;;3.20;1.80;;;10.80;86.30;;;;;;5029704;28;20193;-73
2023/01/06 04:23:45;;;;;;;3.00;1.70;;;10.90;86.60;;;;;;5028933;28;20181;-72
2023/01/06 04:26:11;;;;;;;3.00;1.70;;;10.90;86.60;;;;;;5024051;28;20214;-74
2023/01/06 04:28:36;;;;;;;2.43;1.80;;;10.80;86.80;;;;;;5027638;28;20655;-75
2023/01/06 04:31:02;;;;;;;2.47;1.80;;;10.90;86.60;;;;;;5025868;28;20769;-74
2023/01/06 04:33:28;;;;;;;2.77;1.77;;;10.90;86.50;;;;;;5030995;28;20185;-74
2023/01/06 04:35:53;;;;;;;3.23;2.20;;;10.80;86.60;;;;;;5027085;28;20220;-73
2023/01/06 04:38:19;;;;;;;2.77;1.70;;;10.80;86.60;;;;;;5024154;28;21020;-73
2023/01/06 04:40:45;;;;;;;2.70;1.80;;;10.80;86.80;;;;;;5030391;28;20195;-73
2023/01/06 04:43:15;;;;;;;3.80;2.27;;;10.80;86.80;;;;;;5025680;28;20231;-73
2023/01/06 04:45:41;;;;;;;5.30;2.60;;;10.70;86.90;;;;;;5028364;28;20213;-72
2023/01/06 04:48:08;;;;;;;3.37;2.30;;;10.70;86.90;;;;;;5028418;28;20464;-73
2023/01/06 04:50:33;;;;;;;3.63;2.20;;;10.70;87.10;;;;;;5029789;28;20867;-74
2023/01/06 04:52:59;;;;;;;3.70;1.90;;;10.70;87.00;;;;;;5030689;28;20499;-72
2023/01/06 04:55:25;;;;;;;4.50;2.40;;;10.70;87.00;;;;;;5027561;28;20225;-74
2023/01/06 04:57:50;;;;;;;7.50;2.50;;;10.60;87.00;;;;;;5028404;28;20232;-73
2023/01/06 05:00:16;;;;;;;2.60;1.90;;;10.70;86.90;;;;;;5027293;28;20182;-73
2023/01/06 05:02:42;;;;;;;2.90;1.77;;;10.60;86.90;;;;;;5024539;28;20264;-75
2023/01/06 05:05:08;;;;;;;2.60;1.60;;;10.60;86.90;;;;;;5028777;28;20555;-74
2023/01/06 05:07:34;;;;;;;2.27;1.90;;;10.60;87.00;;;;;;5025882;28;20201;-73
2023/01/06 05:09:59;;;;;;;2.97;1.50;;;10.60;86.90;;;;;;5029687;28;20509;-73
2023/01/06 05:12:25;;;;;;;2.03;1.60;;;10.60;87.10;;;;;;5031593;28;20185;-72
2023/01/06 05:14:51;;;;;;;2.90;1.60;;;10.60;87.00;;;;;;5031261;28;20220;-73
2023/01/06 05:17:16;;;;;;;1.87;1.80;;;10.60;87.00;;;;;;5031754;28;20188;-73
2023/01/06 05:19:43;;;;;;;3.13;1.83;;;10.70;86.90;;;;;;5035132;28;20177;-75
2023/01/06 05:22:09;;;;;;;2.03;1.67;;;10.70;86.60;;;;;;5034812;28;20181;-73
2023/01/06 05:24:35;;;;;;;2.83;1.80;;;10.70;86.60;;;;;;5026484;28;20419;-75
2023/01/06 05:27:01;;;;;;;2.27;1.80;;;10.70;86.60;;;;;;5033687;28;20614;-72
2023/01/06 05:29:27;;;;;;;1.90;1.70;;;10.70;86.60;;;;;;5035199;28;20169;-73
2023/01/06 05:31:52;;;;;;;2.50;1.70;;;10.70;86.80;;;;;;5032048;28;20407;-74
2023/01/06 05:34:18;;;;;;;2.60;1.90;;;10.80;86.80;;;;;;5029046;28;20185;-72
2023/01/06 05:36:43;;;;;;;3.20;2.33;;;10.80;86.60;;;;;;5032330;28;20878;-72
2023/01/06 05:39:09;;;;;;;2.50;1.80;;;10.80;86.30;;;;;;5035166;28;20177;-74
2023/01/06 05:41:34;;;;;;;4.70;2.10;;;10.80;86.20;;;;;;5029421;28;20196;-73
2023/01/06 05:44:00;;;;;;;4.17;2.30;;;10.90;86.00;;;;;;5032134;28;20667;-73
2023/01/06 05:46:26;;;;;;;3.10;2.10;;;10.90;85.70;;;;;;5029370;28;20889;-75
2023/01/06 05:48:51;;;;;;;3.50;2.40;;;10.90;85.60;;;;;;5032796;28;20183;-73
2023/01/06 05:51:17;;;;;;;5.80;3.10;;;10.90;85.60;;;;;;5032869;28;20184;-72
2023/01/06 05:53:45;;;;;;;5.53;2.80;;;10.80;85.60;;;;;;5034364;28;20226;-73
2023/01/06 05:56:13;;;;;;;5.87;2.80;;;10.80;85.60;;;;;;5035149;28;20200;-74
2023/01/06 05:58:41;;;;;;;4.53;2.63;;;10.70;86.00;;;;;;5035454;28;20431;-72
2023/01/06 06:01:14;;;;;;;2.90;2.00;;;10.70;86.20;;;;;;5036814;28;20500;-74
2023/01/06 06:03:40;;;;;;;2.50;2.00;;;10.60;86.30;;;;;;5036555;28;20795;-72
2023/01/06 06:06:06;;;;;;;3.27;1.60;;;10.50;86.60;;;;;;5033252;28;20471;-73
2023/01/06 06:08:32;;;;;;;2.60;2.03;;;10.50;86.80;;;;;;5025578;28;20778;-73
2023/01/06 06:11:05;;;;;;;3.77;2.50;;;10.50;86.80;;;;;;5032080;28;20188;-72
2023/01/06 06:13:31;;;;;;;4.30;2.37;;;10.50;86.60;;;;;;5038459;28;20416;-73
2023/01/06 06:16:08;;;;;;;3.37;2.00;;;10.50;86.60;;;;;;5034373;28;20498;-73
2023/01/06 06:18:41;;;;;;;2.80;2.17;;;10.40;86.80;;;;;;5028127;28;20177;-73
2023/01/06 06:21:07;;;;;;;2.57;1.93;;;10.40;86.90;;;;;;5033377;28;20428;-73
2023/01/06 06:23:33;;;;;;;3.93;2.20;;;10.50;86.90;;;;;;5033455;28;20431;-73
2023/01/06 06:25:59;;;;;;;3.80;1.77;;;10.50;86.80;;;;;;5031607;28;20839;-73
2023/01/06 06:28:25;;;;;;;4.00;2.20;;;10.50;86.60;;;;;;5029145;28;20531;-74
2023/01/06 06:30:50;;;;;;;3.40;2.00;;;10.50;86.60;;;;;;5038186;28;20426;-72
2023/01/06 06:33:16;;;;;;;2.60;2.23;;;10.50;86.60;;;;;;5042737;28;20181;-72
2023/01/06 06:35:42;;;;;;;2.70;2.30;;;10.50;86.60;;;;;;5038141;28;20202;-73
2023/01/06 06:38:07;;;;;;;3.33;2.00;;;10.50;86.80;;;;;;5028810;28;20260;-73
2023/01/06 06:40:33;;;;;;;3.67;2.20;;;10.50;86.60;;;;;;5032039;28;20184;-73
2023/01/06 06:42:58;;;;;;;3.70;2.20;;;10.50;86.60;;;;;;5029620;28;20213;-73
2023/01/06 06:45:24;;;;;;;2.17;1.87;;;10.50;86.80;;;;;;5038772;28;20232;-73
2023/01/06 06:47:53;;;;;;;2.20;1.63;;;10.50;86.60;;;;;;5050816;28;20189;-73
2023/01/06 06:50:18;;;;;;;2.30;1.90;;;10.50;86.90;;;;;;5042119;28;20181;-74
2023/01/06 06:52:44;;;;;;;4.07;2.20;;;10.50;86.90;;;;;;5033588;28;20475;-73
2023/01/06 06:55:09;;;;;;;5.10;1.80;;;10.50;86.80;;;;;;5033112;28;20217;-72
2023/01/06 06:57:35;;;;;;;1.77;1.67;;;10.50;86.80;;;;;;5042426;28;20272;-74
2023/01/06 07:00:01;;;;;;;2.50;1.70;;;10.60;86.80;;;;;;5033125;28;20181;-73
2023/01/06 07:02:26;;;;;;;1.70;1.53;;;10.60;86.60;;;;;;5033686;28;20263;-74
2023/01/06 07:04:52;;;;;;;2.17;1.80;;;10.50;86.60;;;;;;5028309;28;20294;-73
2023/01/06 07:07:17;;;;;;;2.13;1.60;;;10.50;86.90;;;;;;5034139;28;20213;-73
2023/01/06 07:09:43;;;;;;;6.10;2.00;;;10.60;86.90;;;;;;5025801;28;20170;-73
2023/01/06 07:12:08;;;;;;;2.60;1.80;;;10.60;86.60;;;;;;5028263;28;20181;-72
2023/01/06 07:14:34;;;;;;;2.40;1.73;;;10.60;86.50;;;;;;5029070;28;20292;-74
2023/01/06 07:17:03;;;;;;;3.23;1.70;;;10.60;86.50;;;;;;5025090;28;20190;-72
2023/01/06 07:19:29;;;;;;;2.13;1.70;;;10.60;86.30;;;;;;5030043;28;20264;-73
2023/01/06 07:21:54;;;;;;;2.03;1.63;;;10.60;86.30;;;;;;5031462;28;20467;-74
2023/01/06 07:24:20;;;;;;;2.63;2.37;;;10.60;86.20;;;;;;5031138;28;20280;-73
2023/01/06 07:26:45;;;;;;;3.87;1.80;;;10.60;86.30;;;;;;5027446;28;20259;-73
2023/01/06 07:29:11;;;;;;;3.47;1.67;;;10.60;86.20;;;;;;5029070;28;20188;-73
2023/01/06 07:31:36;;;;;;;3.10;1.90;;;10.70;86.30;;;;;;5032520;28;20234;-71
2023/01/06 07:34:02;;;;;;;2.93;2.00;;;10.70;86.30;;;;;;5029253;28;20190;-73
2023/01/06 07:36:28;;;;;;;2.37;1.90;;;10.70;86.20;;;;;;5027854;28;20213;-72
2023/01/06 07:38:53;;;;;;;2.97;1.93;;;10.80;86.00;;;;;;5032101;28;20640;-76
2023/01/06 07:41:19;;;;;;;2.80;1.53;;;10.80;86.00;;;;;;5027924;28;20224;-73
2023/01/06 07:43:44;;;;;;;3.03;2.20;;;10.80;86.00;;;;;;5034882;28;20185;-73
2023/01/06 07:46:10;;;;;;;6.47;2.20;;;10.90;85.90;;;;;;5034114;28;20208;-73
2023/01/06 07:48:36;;;;;;;2.20;1.70;;;11.00;85.30;;;;;;5031474;28;20232;-72
2023/01/06 07:51:02;;;;;;;1.67;1.50;;;11.00;85.20;;;;;;5031499;28;20189;-75
2023/01/06 07:53:28;;;;;;;2.73;1.40;;;11.10;85.20;;;;;;5034967;28;20623;-75
2023/01/06 07:55:54;;;;;;;4.20;1.77;;;11.10;85.50;;;;;;5030064;28;20460;-75
2023/01/06 07:58:22;;;;;;;2.13;2.00;;;11.00;86.20;;;;;;5032308;28;20635;-73
2023/01/06 08:00:48;;;;;;;2.43;1.97;;;11.00;86.90;;;;;;5030980;28;20423;-73
2023/01/06 08:03:14;;;;;;;3.20;2.30;;;11.00;87.10;;;;;;5026299;28;20428;-73
2023/01/06 08:05:41;;;;;;;2.00;1.60;;;11.00;87.60;;;;;;5024270;28;20204;-75
2023/01/06 08:08:07;;;;;;;3.90;1.90;;;11.00;88.00;;;;;;5028147;28;20581;-73
2023/01/06 08:10:33;;;;;;;4.57;1.97;;;11.00;88.10;;;;;;5023431;28;20423;-74
2023/01/06 08:12:58;;;;;;;2.80;2.07;;;11.10;88.60;;;;;;5018345;28;20429;-73
2023/01/06 08:15:24;;;;;;;2.40;1.73;;;11.00;89.20;;;;;;5018949;28;20312;-75
2023/01/06 08:17:54;;;;;;;2.90;2.00;;;11.00;89.90;;;;;;5023825;28;20216;-76
2023/01/06 08:20:20;;;;;;;2.67;1.73;;;11.00;90.20;;;;;;5029518;28;20420;-74
2023/01/06 08:22:46;;;;;;;2.77;1.73;;;11.00;90.50;;;;;;5026178;28;20447;-74
2023/01/06 08:25:11;;;;;;;3.40;2.17;;;11.00;90.80;;;;;;5025040;28;20503;-75
2023/01/06 08:27:37;;;;;;;2.20;1.80;;;11.00;91.00;;;;;;5026702;28;20185;-72
2023/01/06 08:30:03;;;;;;;3.27;2.00;;;10.90;91.30;;;;;;5023719;28;20879;-73
2023/01/06 08:32:29;;;;;;;3.50;2.07;;;11.00;91.40;;;;;;5029057;28;20186;-73
2023/01/06 08:34:54;;;;;;;2.83;1.80;;;10.90;91.60;;;;;;5030406;28;20466;-73
2023/01/06 08:37:20;;;;;;;4.40;2.13;;;10.80;91.80;;;;;;5027333;28;20190;-73
2023/01/06 08:39:46;;;;;;;2.30;2.00;;;10.90;92.10;;;;;;5022616;28;20563;-74
2023/01/06 08:42:11;;;;;;;3.80;2.17;;;10.80;92.20;;;;;;5025124;28;20177;-69
2023/01/06 08:44:37;;;;;;;2.20;1.90;;;10.80;92.40;;;;;;5022915;28;20227;-71
2023/01/06 08:47:03;;;;;;;2.50;1.70;;;10.80;92.60;;;;;;5028596;28;20483;-69
2023/01/06 08:49:28;;;;;;;3.20;2.40;;;10.80;92.70;;;;;;5029032;28;20264;-72
2023/01/06 08:51:54;;;;;;;2.73;1.90;;;10.90;92.70;;;;;;5031924;28;20196;-70
2023/01/06 08:54:20;;;;;;;2.93;1.80;;;10.90;92.70;;;;;;5031029;28;20177;-70
2023/01/06 08:56:45;;;;;;;3.00;2.17;;;10.80;92.50;;;;;;5029947;28;20720;-70
2023/01/06 08:59:16;;;;;;;4.67;2.37;;;10.90;92.50;;;;;;5033295;28;20204;-69
2023/01/06 09:01:42;;;;;;;3.97;2.13;;;10.90;92.50;;;;;;5029295;28;20185;-71
2023/01/06 09:04:09;;;;;;;6.10;2.33;;;10.70;92.30;;;;;;5025599;28;20417;-68
2023/01/06 09:06:35;;;;;;;3.93;1.87;;;10.70;92.50;;;;;;5022219;28;20474;-71
2023/01/06 09:09:02;;;;;;;2.40;1.27;;;10.70;92.40;;;;;;5031043;28;20428;-70
2023/01/06 09:11:28;;;;;;;2.50;1.63;;;10.50;92.10;;;;;;5015521;28;20420;-70
2023/01/06 09:13:53;;;;;;;3.17;1.70;;;10.40;91.90;;;;;;5033195;28;20953;-72
2023/01/06 09:16:20;;;;;;;3.87;1.90;;;10.40;92.20;;;;;;5029217;28;20225;-70
2023/01/06 09:18:49;;;;;;;1.80;1.20;;;10.40;92.30;;;;;;5027612;28;20232;-71
2023/01/06 09:21:19;;;;;;;2.30;1.37;;;10.40;92.30;;;;;;5031510;28;20423;-72
2023/01/06 09:23:45;;;;;;;1.70;1.40;;;10.40;92.00;;;;;;5029944;28;20419;-70
2023/01/06 09:26:12;;;;;;;1.77;1.20;;;10.40;91.80;;;;;;5028421;28;20489;-71
2023/01/06 09:28:38;;;;;;;1.80;1.20;;;10.50;91.40;;;;;;5030469;28;20260;-70
2023/01/06 09:31:03;;;;;;;1.17;1.07;;;10.50;90.80;;;;;;5035049;28;20960;-71
2023/01/06 09:33:29;;;;;;;1.90;1.10;;;10.60;90.40;;;;;;5032251;28;20200;-69
2023/01/06 09:35:54;;;;;;;2.87;1.20;;;10.70;90.00;;;;;;5028844;28;20284;-73
2023/01/06 09:38:20;;;;;;;1.40;1.03;;;10.80;89.60;;;;;;5029513;28;20511;-72
2023/01/06 09:41:17;;;;;;;2.70;1.13;;;10.80;88.90;;;;;;5020966;28;20273;-70
2023/01/06 09:43:52;;;;;;;1.47;1.00;;;11.00;88.40;;;;;;5031687;28;20193;-71
2023/01/06 09:46:22;;;;;;;1.37;1.17;;;11.10;87.10;;;;;;5028323;28;20471;-71
2023/01/06 09:49:03;;;;;;;3.33;1.53;;;11.10;87.10;;;;;;5028256;28;20943;-72
2023/01/06 09:51:30;;;;;;;1.73;1.30;;;11.40;87.30;;;;;;5024867;28;20411;-72
2023/01/06 09:54:07;;;;;;;1.40;1.30;;;11.50;86.80;;;;;;5030934;28;20428;-72
2023/01/06 09:56:33;;;;;;;1.73;1.10;;;11.60;86.30;;;;;;5024986;28;20474;-72
2023/01/06 09:59:18;;;;;;;2.70;1.00;;;11.60;84.90;;;;;;5026950;28;20436;-70
2023/01/06 10:01:48;;;;;;;1.97;1.40;;;11.80;84.70;;;;;;5027921;28;20185;-72
2023/01/06 10:04:23;;;;;;;2.23;1.27;;;11.90;84.00;;;;;;5033673;28;20466;-72
2023/01/06 10:07:04;;;;;;;5.00;1.73;;;12.00;83.60;;;;;;5030212;28;20486;-71
2023/01/06 10:10:07;;;;;;;1.30;1.00;;;12.10;83.40;;;;;;5038399;28;20415;-71
2023/01/06 10:12:57;;;;;;;1.50;1.00;;;12.20;82.50;;;;;;5030387;28;20419;-73
2023/01/06 10:15:32;;;;;;;1.90;1.10;;;12.10;81.80;;;;;;5034541;28;20441;-74
2023/01/06 10:17:57;;;;;;;1.93;1.10;;;12.00;82.20;;;;;;5040461;28;20404;-72
2023/01/06 10:20:29;;;;;;;1.47;1.00;;;12.00;82.40;;;;;;5037486;28;20519;-76
2023/01/06 10:23:11;;;;;;;1.57;0.80;;;11.90;82.40;;;;;;5042106;28;20188;-76
2023/01/06 10:25:42;;;;;;;0.90;0.90;;;12.00;82.40;;;;;;5038014;28;20482;-73
2023/01/06 10:28:23;;;;;;;1.83;1.40;;;12.10;81.80;;;;;;5037086;28;20420;-76
2023/01/06 10:30:51;;;;;;;2.30;1.23;;;12.10;81.80;;;;;;5041835;28;20430;-74
2023/01/06 10:33:37;;;;;;;1.20;0.80;;;12.10;81.70;;;;;;5042003;28;20431;-73
2023/01/06 10:36:08;;;;;;;1.63;0.80;;;12.20;80.80;;;;;;5036667;28;20509;-74
2023/01/06 10:38:41;;;;;;;1.70;1.00;;;12.10;80.90;;;;;;5037577;28;20431;-74
2023/01/06 10:41:22;;;;;;;1.90;0.73;;;12.10;80.60;;;;;;5037591;28;20488;-74
2023/01/06 10:43:48;;;;;;;1.23;0.93;;;12.10;79.90;;;;;;5045466;28;20439;-76
2023/01/06 10:46:14;;;;;;;0.83;0.80;;;12.10;79.60;;;;;;5040680;28;20480;-75
2023/01/06 10:48:40;;;;;;;1.10;0.80;;;12.10;79.60;;;;;;5037155;28;20186;-73
2023/01/06 10:51:26;;;;;;;1.17;0.63;;;12.30;79.20;;;;;;5041012;28;20447;-76
2023/01/06 10:53:54;;;;;;;1.10;0.67;;;12.30;78.10;;;;;;5043843;28;20177;-73
2023/01/06 10:56:20;;;;;;;0.80;0.60;;;12.30;77.70;;;;;;5036437;28;20555;-73
2023/01/06 10:58:51;;;;;;;1.17;0.70;;;12.30;77.60;;;;;;5042883;28;20459;-76
2023/01/06 11:01:23;;;;;;;1.30;0.90;;;12.20;77.60;;;;;;5043401;28;20208;-74
2023/01/06 11:04:05;;;;;;;1.07;0.70;;;12.20;77.60;;;;;;5042789;28;20428;-75
2023/01/06 11:06:31;;;;;;;1.07;0.80;;;12.20;77.80;;;;;;5030269;28;20484;-74
2023/01/06 11:08:57;;;;;;;1.50;1.03;;;12.30;77.80;;;;;;5040403;28;20448;-76
2023/01/06 11:11:23;;;;;;;1.00;0.70;;;12.40;77.70;;;;;;5042999;28;20201;-74
2023/01/06 11:13:52;;;;;;;1.60;0.87;;;12.30;77.40;;;;;;5037716;28;20447;-74
2023/01/06 11:16:40;;;;;;;0.70;0.60;;;12.30;77.60;;;;;;5037170;28;20469;-75
2023/01/06 11:19:20;;;;;;;0.80;0.80;;;12.40;77.60;;;;;;5041720;28;20508;-75
2023/01/06 11:21:46;;;;;;;1.00;0.80;;;12.30;77.70;;;;;;5036830;28;20502;-75
2023/01/06 11:24:23;;;;;;;1.63;1.10;;;12.40;78.00;;;;;;5029628;28;20429;-75
2023/01/06 11:26:53;;;;;;;1.63;1.20;;;12.50;77.00;;;;;;5031095;28;20264;-75
2023/01/06 11:29:28;;;;;;;1.40;1.10;;;12.50;76.80;;;;;;5032808;28;20434;-75
2023/01/06 11:31:55;;;;;;;0.90;0.80;;;12.50;77.30;;;;;;5026278;28;20429;-75
2023/01/06 11:34:24;;;;;;;1.80;0.90;;;12.50;77.00;;;;;;5031918;28;20424;-75
2023/01/06 11:36:51;;;;;;;1.10;0.80;;;12.40;76.70;;;;;;5027985;28;20977;-74
2023/01/06 11:39:23;;;;;;;1.03;0.80;;;12.30;77.00;;;;;;5030941;28;20842;-76
2023/01/06 11:41:51;;;;;;;1.53;0.83;;;12.40;77.30;;;;;;5030633;28;20438;-76
2023/01/06 11:44:41;;;;;;;2.57;1.10;;;12.40;77.60;;;;;;5031779;28;20574;-76
2023/01/06 11:47:16;;;;;;;1.00;0.80;;;12.50;77.40;;;;;;5028989;28;20476;-74
2023/01/06 11:49:49;;;;;;;1.07;0.80;;;12.60;76.70;;;;;;5026916;28;20427;-76
2023/01/06 11:52:30;;;;;;;1.00;0.80;;;12.50;76.20;;;;;;5028714;28;20847;-76
2023/01/06 11:55:00;;;;;;;1.67;1.10;;;12.50;76.20;;;;;;5026821;28;20525;-75
2023/01/06 11:57:51;;;;;;;1.20;1.10;;;12.60;76.20;;;;;;5027536;28;20493;-75
2023/01/06 12:00:27;;;;;;;2.23;1.10;;;12.70;75.90;;;;;;5028286;28;20447;-75
2023/01/06 12:03:22;;;;;;;1.47;0.80;;;12.60;75.90;;;;;;5024992;28;20501;-75
2023/01/06 12:05:57;;;;;;;1.33;0.80;;;12.70;75.90;;;;;;5013989;28;20491;-76
2023/01/06 12:08:42;;;;;;;1.37;0.90;;;12.70;75.50;;;;;;5029173;28;20789;-76
2023/01/06 12:11:13;;;;;;;1.00;0.80;;;12.60;75.70;;;;;;5021930;28;20432;-77
2023/01/06 12:13:39;;;;;;;1.43;0.80;;;12.50;75.90;;;;;;5027893;28;20424;-74
2023/01/06 12:16:13;;;;;;;1.03;0.77;;;12.30;76.20;;;;;;5025180;28;20510;-74
2023/01/06 12:18:40;;;;;;;1.57;1.00;;;12.30;76.70;;;;;;5027686;28;21674;-74
2023/01/06 12:21:12;;;;;;;1.17;0.80;;;12.30;76.70;;;;;;5028194;28;20914;-76
2023/01/06 12:23:40;;;;;;;1.10;0.83;;;12.30;77.00;;;;;;5024294;28;20412;-74
2023/01/06 12:26:18;;;;;;;1.57;0.80;;;12.30;76.70;;;;;;5027257;28;21009;-76
2023/01/06 12:28:46;;;;;;;1.53;0.90;;;12.40;77.00;;;;;;5030814;28;20941;-75
2023/01/06 12:31:14;;;;;;;1.50;0.87;;;12.40;76.50;;;;;;5030059;28;20431;-74
2023/01/06 12:34:25;;;;;;;1.40;0.90;;;12.30;76.20;;;;;;5031181;28;20424;-76
2023/01/06 12:37:16;;;;;;;1.37;1.17;;;12.40;76.70;;;;;;5019647;28;20462;-75
2023/01/06 12:40:03;;;;;;;1.10;0.80;;;12.40;76.70;;;;;;5023386;28;20425;-76
2023/01/06 12:42:37;;;;;;;1.73;1.00;;;12.40;76.70;;;;;;5028120;28;20430;-75
2023/01/06 12:45:29;;;;;;;1.47;0.90;;;12.40;76.80;;;;;;5025067;28;20471;-76
2023/01/06 12:47:57;;;;;;;2.43;0.80;;;12.50;76.50;;;;;;5023197;28;20444;-75
2023/01/06 12:50:58;;;;;;;1.40;0.93;;;12.60;76.10;;;;;;5024279;28;20427;-76
2023/01/06 12:53:58;;;;;;;2.10;1.00;;;12.60;75.80;;;;;;4989074;28;20431;-74
2023/01/06 12:56:39;;;;;;;1.60;1.10;;;12.50;76.20;;;;;;5002121;28;20984;-75
2023/01/06 12:59:29;;;;;;;2.00;1.33;;;12.70;76.50;;;;;;5006578;28;20417;-77
2023/01/06 13:02:13;;;;;;;5.13;1.97;;;12.70;76.50;;;;;;5008574;28;20420;-74
2023/01/06 13:04:54;;;;;;;1.43;0.90;;;12.70;76.70;;;;;;5001282;28;20425;-74
2023/01/06 13:07:29;;;;;;;2.40;1.40;;;12.70;76.80;;;;;;5000505;28;20479;-75
2023/01/06 13:10:25;;;;;;;2.00;1.37;;;12.70;77.10;;;;;;5008454;28;20807;-76
2023/01/06 13:13:35;;;;;;;2.20;1.40;;;12.80;77.40;;;;;;5009174;28;20445;-75
2023/01/06 13:16:15;;;;;;;1.83;1.30;;;12.80;77.40;;;;;;4955350;28;20467;-75